• Join FlightAware (Why Join?)
  • Login
  • US Flag 
10:42AM EDT


 

Airport Tracker/Info


-or-


 

Live Flight TrackerFlight Track Log ✈ EJA951 ✈ 04-Nov-2013 ✈ KMCO - KCLT

Flight Track Log - Related Links

Times and Time Zones

All times are in EST time to prevent confusion due to time zone crossing. See the EJA951 flight status page for this flight to view local times or setup timezone preferences in your user account.

Time Position Orientation Groundspeed Altitude Reporting Facility
EST Latitude Longitude Course Direction KTS MPH feet Rate Location/Type
03:01PM 28.4333 -81.3167 360° North 156 180 500  Level Orlando TRACON
03:02PM 28.4833 -81.3167 360° North 225 259 3,300 3,060 Climbing Orlando TRACON
03:03PM 28.5500 -81.3167 360° North 262 302 6,400 3,060 Climbing Orlando TRACON
03:05PM 28.7122 -81.3303 356° North 285 328 13,000 2,340 Climbing Jacksonville Center
03:06PM 28.8000 -81.3431 353° North 300 345 13,700 900 Climbing Jacksonville Center
03:07PM 28.9044 -81.3581 353° North 338 389 14,900 1,200 Climbing Jacksonville Center
03:08PM 29.0133 -81.3778 351° North 372 428 16,200 1,320 Climbing Jacksonville Center
03:09PM 29.1219 -81.3950 352° North 389 448 17,600 1,200 Climbing Jacksonville Center
03:10PM 29.2328 -81.4028 356° North 394 453 18,700 1,080 Climbing Jacksonville Center
03:11PM 29.3478 -81.4156 354° North 399 459 19,800 1,020 Climbing Jacksonville Center
03:12PM 29.4586 -81.4258 355° North 399 459 20,800 1,080 Climbing Jacksonville Center
03:13PM 29.5756 -81.4408 354° North 411 473 22,000 1,200 Climbing Jacksonville Center
03:14PM 29.6947 -81.4486 357° North 416 479 23,300 1,200 Climbing Jacksonville Center
03:15PM 29.8139 -81.4611 355° North 423 487 24,500 1,260 Climbing Jacksonville Center
03:16PM 29.9369 -81.4714 356° North 423 487 25,900 1,200 Climbing Jacksonville Center
03:17PM 30.0603 -81.4839 355° North 430 495 26,900 960 Climbing Jacksonville Center
03:18PM 30.1858 -81.4964 355° North 443 510 27,900 1,020 Climbing Jacksonville Center
03:19PM 30.3133 -81.5067 356° North 448 516 29,000 1,020 Climbing Jacksonville Center
03:20PM 30.4489 -81.5022 North 460 529 30,000 1,500 Climbing Jacksonville Center
03:21PM 30.5825 -81.4906 North 465 535 32,000 2,400 Climbing Jacksonville Center
03:22PM 30.7075 -81.4817 North 466 536 34,900 2,400 Climbing Jacksonville Center
03:23PM 30.8264 -81.4725 North 445 512 36,800 1,860 Climbing Jacksonville Center
03:24PM 30.9453 -81.4611 North 438 504 38,700 1,800 Climbing Jacksonville Center
03:25PM 31.0686 -81.4519 North 438 504 40,400 1,140 Climbing Jacksonville Center
03:26PM 31.1917 -81.4428 North 433 498 41,000 300 Climbing Jacksonville Center
03:27PM 31.3208 -81.4236 North 453 521 41,000  Level Jacksonville Center
03:28PM 31.4456 -81.3853 15° North 462 532 41,000  Level Jacksonville Center
03:29PM 31.5642 -81.3539 13° North 470 541 41,000  Level Jacksonville Center
03:30PM 31.6911 -81.3203 13° North 465 535 41,000  Level Jacksonville Center
03:31PM 31.8306 -81.2836 13° North 465 535 41,000  Level Jacksonville Center
03:32PM 31.9450 -81.2569 11° North 465 535 41,000  Level Jacksonville Center
03:33PM 32.0700 -81.2206 14° North 465 535 41,000  Level Jacksonville Center
03:34PM 32.1944 -81.1692 19° North 465 535 41,000  Level Jacksonville Center
03:35PM 32.3103 -81.0933 29° Northeast 465 535 41,000  Level Jacksonville Center
03:36PM 32.4261 -81.0172 29° Northeast 470 541 41,000  Level Jacksonville Center
03:37PM 32.5397 -80.9408 30° Northeast 470 541 41,000  Level Jacksonville Center
03:38PM 32.6575 -80.8594 30° Northeast 476 548 41,000  Level Jacksonville Center
03:39PM 32.7731 -80.7828 29° Northeast 476 548 41,000  Level Jacksonville Center
03:40PM 32.8908 -80.7056 29° Northeast 476 548 41,000 -1,200 Level Jacksonville Center
03:41PM 33.0106 -80.6258 29° Northeast 481 554 38,700 -2,520 Descending Jacksonville Center
03:42PM 33.1322 -80.5461 29° Northeast 487 560 36,000 -2,760 Descending Jacksonville Center
03:43PM 33.2681 -80.4531 30° Northeast 492 566 33,200 -2,760 Descending Jacksonville Center
03:44PM 33.3897 -80.3675 30° Northeast 499 574 30,500 -2,700 Descending Jacksonville Center
03:45PM 33.5111 -80.2844 30° Northeast 499 574 27,800 -2,760 Descending Jacksonville Center
03:46PM 33.6344 -80.2008 29° Northeast 494 568 25,000 -2,580 Descending Jacksonville Center
03:47PM 33.7558 -80.1172 30° Northeast 494 568 22,700 -2,220 Descending Jacksonville Center
03:48PM 33.8753 -80.0461 26° Northeast 494 568 20,600 -2,160 Descending Jacksonville Center
03:49PM 33.9964 -80.0572 356° North 450 518 18,400 -1,320 Descending Jacksonville Center
03:50PM 34.1164 -80.1058 341° North 432 497 18,000 -240 Descending Jacksonville Center
03:51PM 34.2322 -80.1500 343° North 432 497 18,000 -60 Level Jacksonville Center
03:52PM 34.3458 -80.1967 341° North 432 497 17,900 -1,380 Descending Jacksonville Center
03:54PM 34.5147 -80.2675 341° North 396 456 14,600 -2,040 Descending Atlanta Center
03:55PM 34.6058 -80.3064 341° North 328 377 12,800 -1,680 Descending Atlanta Center
03:56PM 34.6839 -80.3381 342° North 296 341 11,200 -1,380 Descending Atlanta Center
03:57PM 34.7381 -80.4067 314° West 273 314 10,000 -1,380 Descending Atlanta Center
03:58PM 34.7697 -80.4911 295° West 282 325 8,400 -1,740 Descending Atlanta Center
03:59PM 34.8081 -80.5856 296° West 284 327 6,600 -1,200 Descending Atlanta Center
04:00PM 34.8375 -80.6706 293° West 280 322 6,000 -600 Descending Atlanta Center
04:01PM 34.8792 -80.7447 304° West 267 307 5,400 -840 Descending Atlanta Center
04:02PM 34.9267 -80.8111 311° West 263 303 4,300 -720 Descending Atlanta Center
04:03PM 34.9806 -80.8725 317° Northwest 250 288 4,000 -180 Descending Atlanta Center
04:04PM 35.0339 -80.9186 325° Northwest 233 268 4,000 -540 Level Atlanta Center
04:05PM 35.0864 -80.9269 353° North 198 228 3,000 -1,080 Descending Atlanta Center
04:06PM 35.1406 -80.9300 357° North 169 194 2,000 -900 Descending Atlanta Center
04:07PM 35.1825 -80.9361 353° North 128 147 1,200 -720 Descending Atlanta Center
04:09PM 35.2000 -80.9333 219° Southwest  Level FlightAware Approximate
04:16PM 35.2137 -80.9491 219° Southwest  Level Estimated